Time;durP1;ratioP1;P1;durP2;ratioP2;P2;SDS_P1;SDS_P2;PMS_P1;PMS_P2;Temp;Humidity;BMP_temperature;BMP_pressure;BME280_temperature;BME280_humidity;BME280_pressure;Samples;Min_cycle;Max_cycle;Signal;HPM_P1;HPM_P2
2022/03/24 00:00:28;;;;;;;9.00;4.43;;;;;;;;;;5051165;28;20071;-62
2022/03/24 00:02:54;;;;;;;7.40;3.83;;;;;;;;;;5050747;28;20076;-62
2022/03/24 00:05:20;;;;;;;8.98;4.20;;;;;;;;;;5049447;28;20163;-61
2022/03/24 00:07:46;;;;;;;7.10;3.60;;;;;;;;;;5051318;28;20017;-62
2022/03/24 00:10:13;;;;;;;17.92;3.88;;;;;;;;;;5038510;28;20021;-61
2022/03/24 00:12:42;;;;;;;17.58;4.40;;;;;;;;;;5051040;28;20112;-62
2022/03/24 00:15:08;;;;;;;9.10;3.80;;;;;;;;;;5054871;28;20417;-62
2022/03/24 00:17:34;;;;;;;8.93;4.10;;;;;;;;;;5030805;28;20024;-62
2022/03/24 00:20:01;;;;;;;13.45;4.28;;;;;;;;;;5030767;28;20525;-62
2022/03/24 00:22:27;;;;;;;9.25;4.22;;;;;;;;;;5031175;28;20100;-62
2022/03/24 00:24:53;;;;;;;9.60;3.92;;;;;;;;;;5030859;28;20485;-62
2022/03/24 00:27:19;;;;;;;8.45;4.38;;;;;;;;;;5042206;28;20060;-62
2022/03/24 00:29:46;;;;;;;11.52;4.35;;;;;;;;;;5050787;28;20032;-61
2022/03/24 00:32:12;;;;;;;10.32;4.25;;;;;;;;;;5051266;28;20589;-61
2022/03/24 00:34:38;;;;;;;11.07;3.90;;;;;;;;;;5051787;28;20032;-63
2022/03/24 00:37:04;;;;;;;8.80;3.70;;;;;;;;;;5051459;28;20024;-63
2022/03/24 00:39:34;;;;;;;7.85;3.95;;;;;;;;;;5051506;28;20472;-62
2022/03/24 00:42:07;;;;;;;7.32;3.80;;;;;;;;;;5051451;28;20032;-61
2022/03/24 00:44:33;;;;;;;10.43;3.30;;;;;;;;;;5051337;28;20041;-61
2022/03/24 00:46:59;;;;;;;7.30;3.95;;;;;;;;;;5051134;28;20067;-62
2022/03/24 00:49:26;;;;;;;7.97;3.83;;;;;;;;;;5051223;28;20025;-62
2022/03/24 00:51:52;;;;;;;9.02;3.47;;;;;;;;;;5051234;28;20017;-61
2022/03/24 00:54:18;;;;;;;8.52;3.45;;;;;;;;;;5051444;28;20435;-62
2022/03/24 00:56:48;;;;;;;8.50;3.90;;;;;;;;;;5051372;28;20104;-62
2022/03/24 00:59:14;;;;;;;6.82;3.72;;;;;;;;;;5051298;28;20031;-63
2022/03/24 01:01:41;;;;;;;7.80;3.35;;;;;;;;;;5051064;28;20017;-61
2022/03/24 01:04:09;;;;;;;10.30;4.18;;;;;;;;;;5051164;28;20049;-61
2022/03/24 01:06:35;;;;;;;30.35;4.75;;;;;;;;;;5051151;28;20061;-62
2022/03/24 01:09:05;;;;;;;13.55;3.65;;;;;;;;;;5051481;28;20414;-61
2022/03/24 01:11:32;;;;;;;10.73;3.83;;;;;;;;;;5051126;28;20013;-61
2022/03/24 01:13:58;;;;;;;9.40;3.25;;;;;;;;;;5050923;28;20078;-61
2022/03/24 01:16:24;;;;;;;8.32;3.88;;;;;;;;;;5051192;28;20020;-62
2022/03/24 01:18:51;;;;;;;8.75;3.75;;;;;;;;;;5051467;28;20321;-62
2022/03/24 01:21:17;;;;;;;8.27;4.13;;;;;;;;;;5051340;28;20060;-62
2022/03/24 01:23:47;;;;;;;6.28;3.40;;;;;;;;;;5051160;28;20052;-62
2022/03/24 01:26:15;;;;;;;9.45;3.80;;;;;;;;;;5054005;28;20021;-62
2022/03/24 01:28:41;;;;;;;15.18;4.35;;;;;;;;;;5054722;28;20021;-62
2022/03/24 01:31:08;;;;;;;7.22;3.92;;;;;;;;;;5049759;28;20337;-63
2022/03/24 01:33:37;;;;;;;8.00;3.83;;;;;;;;;;5034892;28;20026;-62
2022/03/24 01:36:03;;;;;;;7.78;3.97;;;;;;;;;;5034345;28;20026;-62
2022/03/24 01:38:29;;;;;;;8.20;3.63;;;;;;;;;;5034635;28;20471;-62
2022/03/24 01:40:58;;;;;;;7.78;3.55;;;;;;;;;;5034763;28;20076;-63
2022/03/24 01:43:24;;;;;;;9.02;3.70;;;;;;;;;;5034660;28;20025;-62
2022/03/24 01:45:50;;;;;;;10.63;4.53;;;;;;;;;;5034672;28;20024;-62
2022/03/24 01:48:16;;;;;;;7.13;3.67;;;;;;;;;;5037319;28;20025;-61
2022/03/24 01:50:43;;;;;;;9.93;4.05;;;;;;;;;;5038552;28;20056;-61
2022/03/24 01:53:09;;;;;;;9.32;3.50;;;;;;;;;;5053987;28;20025;-62
2022/03/24 01:55:38;;;;;;;11.18;4.25;;;;;;;;;;5054670;28;20025;-62
2022/03/24 01:58:05;;;;;;;7.40;3.75;;;;;;;;;;5054050;28;20027;-61
2022/03/24 02:00:31;;;;;;;6.63;3.65;;;;;;;;;;5054254;28;20024;-60
2022/03/24 02:02:58;;;;;;;9.52;3.75;;;;;;;;;;5054097;28;20025;-60
2022/03/24 02:05:25;;;;;;;7.10;3.78;;;;;;;;;;5051531;28;20511;-61
2022/03/24 02:07:52;;;;;;;7.00;3.95;;;;;;;;;;5039938;28;20058;-62
2022/03/24 02:10:18;;;;;;;8.52;4.18;;;;;;;;;;5069094;28;20064;-61
2022/03/24 02:12:45;;;;;;;8.20;3.88;;;;;;;;;;5054007;28;20021;-62
2022/03/24 02:15:11;;;;;;;8.07;4.18;;;;;;;;;;5054143;28;20550;-62
2022/03/24 02:17:39;;;;;;;10.20;4.15;;;;;;;;;;5054092;28;20456;-61
2022/03/24 02:20:09;;;;;;;6.85;3.88;;;;;;;;;;5054185;28;20070;-61
2022/03/24 02:22:35;;;;;;;9.32;4.07;;;;;;;;;;5053926;28;20021;-62
2022/03/24 02:25:01;;;;;;;6.65;3.83;;;;;;;;;;5042594;28;20037;-61
2022/03/24 02:27:27;;;;;;;10.48;4.20;;;;;;;;;;5033561;28;20029;-62
2022/03/24 02:29:54;;;;;;;8.18;4.53;;;;;;;;;;5033240;28;20028;-62
2022/03/24 02:32:20;;;;;;;7.30;3.85;;;;;;;;;;5032023;28;20031;-62
2022/03/24 02:34:51;;;;;;;8.88;4.28;;;;;;;;;;5032164;28;20036;-62
2022/03/24 02:37:22;;;;;;;6.40;3.53;;;;;;;;;;5033258;28;20028;-62
2022/03/24 02:39:58;;;;;;;8.35;4.05;;;;;;;;;;5033701;28;20049;-61
2022/03/24 02:42:26;;;;;;;7.50;3.97;;;;;;;;;;5033654;28;20377;-62
2022/03/24 02:44:53;;;;;;;9.05;3.95;;;;;;;;;;5033527;28;20767;-62
2022/03/24 02:47:20;;;;;;;10.15;4.13;;;;;;;;;;5033410;28;20472;-62
2022/03/24 02:49:48;;;;;;;8.02;3.75;;;;;;;;;;5033332;28;20041;-62
2022/03/24 02:52:14;;;;;;;7.50;3.78;;;;;;;;;;5049872;28;20033;-62
2022/03/24 02:54:41;;;;;;;7.30;4.10;;;;;;;;;;5053196;28;20025;-62
2022/03/24 02:57:07;;;;;;;7.88;4.05;;;;;;;;;;5053217;28;20021;-63
2022/03/24 02:59:33;;;;;;;6.65;3.97;;;;;;;;;;5053125;28;20022;-62
2022/03/24 03:02:01;;;;;;;7.57;4.13;;;;;;;;;;5052835;28;20128;-61
2022/03/24 03:04:28;;;;;;;9.00;4.25;;;;;;;;;;5052831;28;20033;-64
2022/03/24 03:06:54;;;;;;;8.85;4.40;;;;;;;;;;5048667;28;20045;-64
2022/03/24 03:09:21;;;;;;;7.07;3.88;;;;;;;;;;5033446;28;20051;-61
2022/03/24 03:11:48;;;;;;;7.13;4.20;;;;;;;;;;5032342;28;20105;-62
2022/03/24 03:14:15;;;;;;;10.05;4.90;;;;;;;;;;5032635;28;20021;-61
2022/03/24 03:16:41;;;;;;;7.75;3.85;;;;;;;;;;5031538;28;20029;-61
2022/03/24 03:19:08;;;;;;;8.40;3.92;;;;;;;;;;5032844;28;20022;-64
2022/03/24 03:21:38;;;;;;;9.80;4.95;;;;;;;;;;5032669;28;20063;-63
2022/03/24 03:24:04;;;;;;;9.65;4.38;;;;;;;;;;5032418;28;20496;-62
2022/03/24 03:26:30;;;;;;;7.85;3.97;;;;;;;;;;5032681;28;20026;-62
2022/03/24 03:28:56;;;;;;;8.50;4.03;;;;;;;;;;5032358;28;20022;-63
2022/03/24 03:31:23;;;;;;;7.90;4.38;;;;;;;;;;5032498;28;20473;-62
2022/03/24 03:33:50;;;;;;;7.75;4.15;;;;;;;;;;5032266;28;20024;-64
2022/03/24 03:36:17;;;;;;;6.63;3.80;;;;;;;;;;5032271;28;20049;-62
2022/03/24 03:38:44;;;;;;;8.05;4.35;;;;;;;;;;5032444;28;20029;-63
2022/03/24 03:41:11;;;;;;;8.18;4.03;;;;;;;;;;5032212;28;20080;-62
2022/03/24 03:43:38;;;;;;;9.82;4.30;;;;;;;;;;5032236;28;20104;-62
2022/03/24 03:46:04;;;;;;;8.02;4.60;;;;;;;;;;5032259;28;20029;-61
2022/03/24 03:48:30;;;;;;;8.65;3.88;;;;;;;;;;5031945;28;20018;-62
2022/03/24 03:50:56;;;;;;;13.77;4.78;;;;;;;;;;5038194;28;20081;-61
2022/03/24 03:53:23;;;;;;;9.50;4.35;;;;;;;;;;5050862;28;20513;-62
2022/03/24 03:55:49;;;;;;;7.40;4.05;;;;;;;;;;5052243;28;20489;-62
2022/03/24 03:58:16;;;;;;;8.75;4.10;;;;;;;;;;5052195;28;20047;-61
2022/03/24 04:00:55;;;;;;;8.45;4.28;;;;;;;;;;5052139;28;20021;-61
2022/03/24 04:03:25;;;;;;;7.68;3.83;;;;;;;;;;5051770;28;20025;-61
2022/03/24 04:05:55;;;;;;;8.73;4.28;;;;;;;;;;5051715;28;20048;-63
2022/03/24 04:08:22;;;;;;;8.32;4.28;;;;;;;;;;5036669;28;20366;-62
2022/03/24 04:10:52;;;;;;;6.50;3.80;;;;;;;;;;5031653;28;20025;-61
2022/03/24 04:13:19;;;;;;;6.43;3.25;;;;;;;;;;5031660;28;20021;-61
2022/03/24 04:15:49;;;;;;;7.05;3.70;;;;;;;;;;5031970;28;20057;-61
2022/03/24 04:18:16;;;;;;;7.40;3.65;;;;;;;;;;5031978;28;20105;-60
2022/03/24 04:20:42;;;;;;;10.07;4.40;;;;;;;;;;5032107;28;20024;-62
2022/03/24 04:23:09;;;;;;;6.53;3.78;;;;;;;;;;5031715;28;20531;-62
2022/03/24 04:25:35;;;;;;;6.93;3.83;;;;;;;;;;5031793;28;20029;-62
2022/03/24 04:28:02;;;;;;;6.57;3.72;;;;;;;;;;5031448;28;20026;-62
2022/03/24 04:30:28;;;;;;;8.30;3.83;;;;;;;;;;5031415;28;20022;-61
2022/03/24 04:32:54;;;;;;;10.57;3.65;;;;;;;;;;5031618;28;20084;-62
2022/03/24 04:35:21;;;;;;;7.43;3.85;;;;;;;;;;5031468;28;20107;-61
2022/03/24 04:37:47;;;;;;;7.90;4.65;;;;;;;;;;5031305;28;20060;-61
2022/03/24 04:40:16;;;;;;;8.88;4.65;;;;;;;;;;5031577;28;20034;-62
2022/03/24 04:42:42;;;;;;;10.88;4.05;;;;;;;;;;5031616;28;20029;-61
2022/03/24 04:45:09;;;;;;;7.20;3.95;;;;;;;;;;5031725;28;20477;-61
2022/03/24 04:47:35;;;;;;;6.95;4.15;;;;;;;;;;5031465;28;20425;-61
2022/03/24 04:50:02;;;;;;;9.38;4.03;;;;;;;;;;5031616;28;20100;-61
2022/03/24 04:52:28;;;;;;;12.20;4.28;;;;;;;;;;5049920;28;20021;-61
2022/03/24 04:54:54;;;;;;;8.25;4.50;;;;;;;;;;5051574;28;20021;-62
2022/03/24 04:57:20;;;;;;;7.75;4.18;;;;;;;;;;5051517;28;20029;-61
2022/03/24 04:59:46;;;;;;;8.40;4.28;;;;;;;;;;5051934;28;20040;-60
2022/03/24 05:02:15;;;;;;;8.48;4.60;;;;;;;;;;5055546;28;20052;-61
2022/03/24 05:04:45;;;;;;;7.93;4.53;;;;;;;;;;5055172;28;20044;-62
2022/03/24 05:07:11;;;;;;;7.30;4.35;;;;;;;;;;5055435;28;20100;-62
2022/03/24 05:09:38;;;;;;;8.52;4.70;;;;;;;;;;5055321;28;20056;-62
2022/03/24 05:12:04;;;;;;;9.40;4.95;;;;;;;;;;5055439;28;20096;-61
2022/03/24 05:14:31;;;;;;;7.65;4.18;;;;;;;;;;5055250;28;20017;-62
2022/03/24 05:16:57;;;;;;;8.57;4.70;;;;;;;;;;5055236;28;20043;-62
2022/03/24 05:19:23;;;;;;;7.63;4.97;;;;;;;;;;5053934;28;20071;-61
2022/03/24 05:21:49;;;;;;;7.72;4.35;;;;;;;;;;5055017;28;20423;-61
2022/03/24 05:24:15;;;;;;;9.05;4.63;;;;;;;;;;5054831;28;20428;-62
2022/03/24 05:26:42;;;;;;;8.30;4.70;;;;;;;;;;5055105;28;20025;-61
2022/03/24 05:29:09;;;;;;;15.45;5.03;;;;;;;;;;5054910;28;20017;-61
2022/03/24 05:31:35;;;;;;;10.32;5.13;;;;;;;;;;5054778;28;20021;-62
2022/03/24 05:34:01;;;;;;;9.32;4.63;;;;;;;;;;5054719;28;20055;-62
2022/03/24 05:36:27;;;;;;;10.95;5.05;;;;;;;;;;5054812;28;20078;-61
2022/03/24 05:38:53;;;;;;;7.32;4.40;;;;;;;;;;5054641;28;20008;-62
2022/03/24 05:41:19;;;;;;;10.23;5.10;;;;;;;;;;5054488;28;20096;-61
2022/03/24 05:44:02;;;;;;;7.18;3.90;;;;;;;;;;5054693;28;20029;-62
2022/03/24 05:46:28;;;;;;;;;;;;;;;;;;5055212;28;20017;-61
2022/03/24 05:48:54;;;;;;;10.77;4.43;;;;;;;;;;5054799;28;20027;-62
2022/03/24 05:51:20;;;;;;;7.25;4.38;;;;;;;;;;5054692;28;20032;-63
2022/03/24 05:53:46;;;;;;;8.80;4.75;;;;;;;;;;5054314;28;20064;-62
2022/03/24 05:56:12;;;;;;;10.57;4.80;;;;;;;;;;5054386;28;20021;-62
2022/03/24 05:58:38;;;;;;;8.55;4.60;;;;;;;;;;5054185;28;20032;-62
2022/03/24 06:01:05;;;;;;;8.35;4.70;;;;;;;;;;5054050;28;20100;-62
2022/03/24 06:03:31;;;;;;;8.60;4.47;;;;;;;;;;5052687;28;20043;-62
2022/03/24 06:05:59;;;;;;;8.75;4.75;;;;;;;;;;5040651;28;20041;-61
2022/03/24 06:08:25;;;;;;;8.98;4.95;;;;;;;;;;5036606;28;20026;-61
2022/03/24 06:10:51;;;;;;;10.55;4.75;;;;;;;;;;5033488;28;20030;-61
2022/03/24 06:13:18;;;;;;;12.32;4.60;;;;;;;;;;5034095;28;20017;-62
2022/03/24 06:15:45;;;;;;;9.93;4.90;;;;;;;;;;5033929;28;20076;-61
2022/03/24 06:18:11;;;;;;;10.80;4.35;;;;;;;;;;5033989;28;20461;-61
2022/03/24 06:20:38;;;;;;;11.55;4.60;;;;;;;;;;5033992;28;20025;-61
2022/03/24 06:23:04;;;;;;;9.88;4.85;;;;;;;;;;5034067;28;20025;-61
2022/03/24 06:25:30;;;;;;;8.10;4.65;;;;;;;;;;5033819;28;20053;-62
2022/03/24 06:27:57;;;;;;;8.73;4.65;;;;;;;;;;5033990;28;20112;-61
2022/03/24 06:30:24;;;;;;;12.85;5.30;;;;;;;;;;5033704;28;20108;-62
2022/03/24 06:32:52;;;;;;;9.77;4.60;;;;;;;;;;5033794;28;20049;-61
2022/03/24 06:35:18;;;;;;;10.80;4.78;;;;;;;;;;5033864;28;20018;-60
2022/03/24 06:37:44;;;;;;;11.60;4.35;;;;;;;;;;5038736;28;20017;-62
2022/03/24 06:40:12;;;;;;;9.73;4.93;;;;;;;;;;5053326;28;20021;-60
2022/03/24 06:42:38;;;;;;;13.18;4.50;;;;;;;;;;5053160;28;20492;-61
2022/03/24 06:45:06;;;;;;;54.78;7.72;;;;;;;;;;5053540;28;20039;-60
2022/03/24 06:47:32;;;;;;;27.67;5.78;;;;;;;;;;5053483;28;20025;-62
2022/03/24 06:49:58;;;;;;;16.08;5.25;;;;;;;;;;5053153;28;20021;-61
2022/03/24 06:52:24;;;;;;;11.50;4.07;;;;;;;;;;5052992;28;20105;-61
2022/03/24 06:54:51;;;;;;;18.40;4.88;;;;;;;;;;5040180;28;20029;-61
2022/03/24 06:57:17;;;;;;;10.57;4.25;;;;;;;;;;5033091;28;20045;-62
2022/03/24 06:59:43;;;;;;;15.32;4.82;;;;;;;;;;5032839;28;20105;-62
2022/03/24 07:02:09;;;;;;;16.55;4.57;;;;;;;;;;5033078;28;20116;-61
2022/03/24 07:04:36;;;;;;;10.98;4.68;;;;;;;;;;5035768;28;20032;-61
2022/03/24 07:07:03;;;;;;;6.55;3.60;;;;;;;;;;5052455;28;20021;-61
2022/03/24 07:09:29;;;;;;;15.88;4.28;;;;;;;;;;5051232;28;20392;-61
2022/03/24 07:11:56;;;;;;;8.75;4.00;;;;;;;;;;5051739;28;20043;-62
2022/03/24 07:14:22;;;;;;;9.25;4.05;;;;;;;;;;5052325;28;20541;-61
2022/03/24 07:16:48;;;;;;;6.68;3.40;;;;;;;;;;5048899;28;20055;-61
2022/03/24 07:19:14;;;;;;;9.75;3.95;;;;;;;;;;5051531;28;20052;-61
2022/03/24 07:21:40;;;;;;;10.80;4.15;;;;;;;;;;5051590;28;20017;-61
2022/03/24 07:24:06;;;;;;;12.32;4.55;;;;;;;;;;5050583;28;20241;-61
2022/03/24 07:26:32;;;;;;;7.00;3.60;;;;;;;;;;5051904;28;20095;-61
2022/03/24 07:28:59;;;;;;;9.55;3.53;;;;;;;;;;5051738;28;20024;-61
2022/03/24 07:31:26;;;;;;;7.75;3.85;;;;;;;;;;5052041;28;20054;-61
2022/03/24 07:33:57;;;;;;;10.65;3.55;;;;;;;;;;5045378;28;20021;-62
2022/03/24 07:36:25;;;;;;;7.38;3.90;;;;;;;;;;5053849;28;20041;-62
2022/03/24 07:38:56;;;;;;;7.80;3.72;;;;;;;;;;5042672;28;20021;-62
2022/03/24 07:41:23;;;;;;;7.07;3.53;;;;;;;;;;5050168;28;20028;-62
2022/03/24 07:43:49;;;;;;;6.40;3.35;;;;;;;;;;5047428;28;20519;-63
2022/03/24 07:46:15;;;;;;;7.95;3.63;;;;;;;;;;5044785;28;20468;-63
2022/03/24 07:48:46;;;;;;;7.25;3.35;;;;;;;;;;5051945;28;20032;-61
2022/03/24 07:51:13;;;;;;;7.55;3.10;;;;;;;;;;5051935;28;20498;-61
2022/03/24 07:53:44;;;;;;;6.75;3.30;;;;;;;;;;5051857;28;20754;-62
2022/03/24 07:56:10;;;;;;;8.13;4.25;;;;;;;;;;5051955;28;20024;-61
2022/03/24 07:58:38;;;;;;;8.75;3.05;;;;;;;;;;5052033;28;20025;-63
2022/03/24 08:01:04;;;;;;;6.68;3.13;;;;;;;;;;5052057;28;20428;-62
2022/03/24 08:03:30;;;;;;;6.60;3.25;;;;;;;;;;5067242;28;20393;-62
2022/03/24 08:05:57;;;;;;;9.50;3.22;;;;;;;;;;5051689;28;20068;-62
2022/03/24 08:08:23;;;;;;;6.80;3.45;;;;;;;;;;5051807;28;20464;-62
2022/03/24 08:10:50;;;;;;;6.03;3.38;;;;;;;;;;5052025;28;20021;-62
2022/03/24 08:13:17;;;;;;;5.25;2.85;;;;;;;;;;5051756;28;20112;-62
2022/03/24 08:15:44;;;;;;;11.38;3.92;;;;;;;;;;5051233;28;20029;-62
2022/03/24 08:18:10;;;;;;;6.85;3.42;;;;;;;;;;5051434;28;20108;-61
2022/03/24 08:20:37;;;;;;;9.00;3.25;;;;;;;;;;5051660;28;20017;-60
2022/03/24 08:23:03;;;;;;;6.57;3.17;;;;;;;;;;5051675;28;20147;-60
2022/03/24 08:25:30;;;;;;;9.55;3.63;;;;;;;;;;5044559;28;20480;-61
2022/03/24 08:27:56;;;;;;;17.40;3.63;;;;;;;;;;5048127;28;20032;-62
2022/03/24 08:30:23;;;;;;;7.28;3.50;;;;;;;;;;5051295;28;20059;-61
2022/03/24 08:32:49;;;;;;;6.63;3.38;;;;;;;;;;5066624;28;20032;-62
2022/03/24 08:35:15;;;;;;;7.40;3.22;;;;;;;;;;5051215;28;20098;-62
2022/03/24 08:37:42;;;;;;;9.00;3.17;;;;;;;;;;5049353;28;20032;-63
2022/03/24 08:40:08;;;;;;;5.20;3.03;;;;;;;;;;5049868;28;20023;-62
2022/03/24 08:42:36;;;;;;;7.07;3.38;;;;;;;;;;5050649;28;20483;-62
2022/03/24 08:45:02;;;;;;;6.63;3.20;;;;;;;;;;5034766;28;20132;-61
2022/03/24 08:47:28;;;;;;;6.65;3.22;;;;;;;;;;5031818;28;20511;-62
2022/03/24 08:49:54;;;;;;;8.77;3.03;;;;;;;;;;5031516;28;20067;-62
2022/03/24 08:52:21;;;;;;;7.65;2.75;;;;;;;;;;5049807;28;20108;-61
2022/03/24 08:54:48;;;;;;;5.88;3.08;;;;;;;;;;5051409;28;20380;-61
2022/03/24 08:57:14;;;;;;;7.97;3.50;;;;;;;;;;5051293;28;20029;-62
2022/03/24 08:59:40;;;;;;;8.80;3.20;;;;;;;;;;5051401;28;20076;-63
2022/03/24 09:02:06;;;;;;;7.18;2.95;;;;;;;;;;5051051;28;20029;-61
2022/03/24 09:04:32;;;;;;;5.90;3.10;;;;;;;;;;5050894;28;20053;-62
2022/03/24 09:06:58;;;;;;;6.40;3.35;;;;;;;;;;5051448;28;20119;-62
2022/03/24 09:09:24;;;;;;;8.95;4.15;;;;;;;;;;5051116;28;20043;-61
2022/03/24 09:11:51;;;;;;;9.05;3.78;;;;;;;;;;5050967;28;20032;-61
2022/03/24 09:14:17;;;;;;;11.10;3.70;;;;;;;;;;5050641;28;20029;-62
2022/03/24 09:16:44;;;;;;;8.77;3.17;;;;;;;;;;5050494;28;20021;-61
2022/03/24 09:19:10;;;;;;;5.57;3.17;;;;;;;;;;5050490;28;20025;-63
2022/03/24 09:21:36;;;;;;;8.77;3.45;;;;;;;;;;5050836;28;20468;-61
2022/03/24 09:24:03;;;;;;;8.50;3.40;;;;;;;;;;5050541;28;20063;-61
2022/03/24 09:26:29;;;;;;;8.07;3.30;;;;;;;;;;5050190;28;20025;-62
2022/03/24 09:28:55;;;;;;;9.07;3.35;;;;;;;;;;5050634;28;20021;-62
2022/03/24 09:31:21;;;;;;;9.25;3.35;;;;;;;;;;5050360;28;20022;-62
2022/03/24 09:33:47;;;;;;;6.40;3.13;;;;;;;;;;5050596;28;20051;-62
2022/03/24 09:36:13;;;;;;;9.65;3.50;;;;;;;;;;5050559;28;20025;-64
2022/03/24 09:38:39;;;;;;;7.45;3.80;;;;;;;;;;5051064;28;20063;-62
2022/03/24 09:41:06;;;;;;;6.45;3.20;;;;;;;;;;5050882;28;20033;-63
2022/03/24 09:43:37;;;;;;;7.13;3.30;;;;;;;;;;5050835;28;20465;-61
2022/03/24 09:46:03;;;;;;;10.10;4.07;;;;;;;;;;5051637;28;20025;-62
2022/03/24 09:48:29;;;;;;;8.07;3.38;;;;;;;;;;5054632;28;20092;-62
2022/03/24 09:50:55;;;;;;;6.28;3.75;;;;;;;;;;5054410;28;20029;-62
2022/03/24 09:53:23;;;;;;;9.77;4.20;;;;;;;;;;5054466;28;20021;-63
2022/03/24 09:55:49;;;;;;;6.53;3.80;;;;;;;;;;5054409;28;20337;-62
2022/03/24 09:58:16;;;;;;;7.43;3.35;;;;;;;;;;5054287;28;20041;-61
2022/03/24 10:00:42;;;;;;;7.10;3.80;;;;;;;;;;5054350;28;20024;-62
2022/03/24 10:03:14;;;;;;;6.97;3.80;;;;;;;;;;5053973;28;20112;-62
2022/03/24 10:05:59;;;;;;;9.77;3.60;;;;;;;;;;5052806;28;20053;-61
2022/03/24 10:08:29;;;;;;;9.73;3.80;;;;;;;;;;5054141;28;20486;-61
2022/03/24 10:10:58;;;;;;;6.35;3.60;;;;;;;;;;5054082;28;20032;-61
2022/03/24 10:13:44;;;;;;;7.40;3.53;;;;;;;;;;5054134;28;20021;-62
2022/03/24 10:16:31;;;;;;;8.35;3.58;;;;;;;;;;5053844;28;20403;-63
2022/03/24 10:19:00;;;;;;;5.03;3.20;;;;;;;;;;5050052;28;20037;-61
2022/03/24 10:21:28;;;;;;;7.15;4.18;;;;;;;;;;5053792;28;20135;-62
2022/03/24 10:23:56;;;;;;;6.57;3.40;;;;;;;;;;5053661;28;20037;-63
2022/03/24 10:26:22;;;;;;;8.07;3.92;;;;;;;;;;5053764;28;20017;-63
2022/03/24 10:28:58;;;;;;;7.43;3.92;;;;;;;;;;5053748;28;20362;-62
2022/03/24 10:31:35;;;;;;;6.20;3.72;;;;;;;;;;5053759;28;20051;-61
2022/03/24 10:34:01;;;;;;;7.65;3.83;;;;;;;;;;5053744;28;20028;-62
2022/03/24 10:36:27;;;;;;;7.07;3.97;;;;;;;;;;5053689;28;20025;-62
2022/03/24 10:38:54;;;;;;;7.32;3.83;;;;;;;;;;5053620;28;20086;-62
2022/03/24 10:41:20;;;;;;;7.03;3.92;;;;;;;;;;5053482;28;20021;-63
2022/03/24 10:43:49;;;;;;;7.47;3.97;;;;;;;;;;5051436;28;20041;-63
2022/03/24 10:46:16;;;;;;;8.15;3.55;;;;;;;;;;5046319;28;20028;-63
2022/03/24 10:48:42;;;;;;;11.90;3.90;;;;;;;;;;5053199;28;20079;-62
2022/03/24 10:51:08;;;;;;;9.55;3.92;;;;;;;;;;5053162;28;20056;-63
2022/03/24 10:53:41;;;;;;;14.77;4.10;;;;;;;;;;5053247;28;20104;-63
2022/03/24 10:56:11;;;;;;;15.55;5.28;;;;;;;;;;5052324;28;20025;-63
2022/03/24 10:58:40;;;;;;;10.32;4.10;;;;;;;;;;5051876;28;20028;-62
2022/03/24 11:01:07;;;;;;;10.95;4.20;;;;;;;;;;5052726;28;20191;-62
2022/03/24 11:03:33;;;;;;;16.00;4.20;;;;;;;;;;5052509;28;20029;-62
2022/03/24 11:06:10;;;;;;;7.75;3.78;;;;;;;;;;5052365;28;20128;-62
2022/03/24 11:08:36;;;;;;;8.63;4.32;;;;;;;;;;5052866;28;20081;-63
2022/03/24 11:11:06;;;;;;;7.82;4.00;;;;;;;;;;5052578;28;20025;-62
2022/03/24 11:13:41;;;;;;;8.35;4.03;;;;;;;;;;5052567;28;20017;-63
2022/03/24 11:16:11;;;;;;;8.52;4.03;;;;;;;;;;5052533;28;20302;-64
2022/03/24 11:18:37;;;;;;;6.95;3.70;;;;;;;;;;5052634;28;20032;-63
2022/03/24 11:21:10;;;;;;;10.10;4.10;;;;;;;;;;5052858;28;20043;-63
2022/03/24 11:23:39;;;;;;;7.13;3.88;;;;;;;;;;5052451;28;20130;-63
2022/03/24 11:26:06;;;;;;;8.50;3.83;;;;;;;;;;5052254;28;20096;-62
2022/03/24 11:28:36;;;;;;;8.75;3.65;;;;;;;;;;5052533;28;20029;-62
2022/03/24 11:31:09;;;;;;;10.52;3.70;;;;;;;;;;5052417;28;20044;-62
2022/03/24 11:33:58;;;;;;;7.72;3.67;;;;;;;;;;5051141;28;20074;-63
2022/03/24 11:36:24;;;;;;;9.88;3.30;;;;;;;;;;5052247;28;20025;-64
2022/03/24 11:38:52;;;;;;;6.22;3.70;;;;;;;;;;5052594;28;20048;-62
2022/03/24 11:41:24;;;;;;;9.50;3.67;;;;;;;;;;5052612;28;20021;-62
2022/03/24 11:43:51;;;;;;;7.13;3.90;;;;;;;;;;5050868;28;20395;-62
2022/03/24 11:46:20;;;;;;;7.18;3.80;;;;;;;;;;5052037;28;20025;-63
2022/03/24 11:48:47;;;;;;;6.28;3.35;;;;;;;;;;5052236;28;20055;-62
2022/03/24 11:51:20;;;;;;;6.22;3.15;;;;;;;;;;5051966;28;20667;-63
2022/03/24 11:53:59;;;;;;;6.55;3.42;;;;;;;;;;5050838;28;20167;-62
2022/03/24 11:56:25;;;;;;;7.00;3.30;;;;;;;;;;5052338;28;20025;-64
2022/03/24 11:58:54;;;;;;;8.30;3.40;;;;;;;;;;5051992;28;20093;-63
2022/03/24 12:01:20;;;;;;;9.35;3.70;;;;;;;;;;5051823;28;20021;-60
2022/03/24 12:03:48;;;;;;;7.30;3.40;;;;;;;;;;5052029;28;20041;-62
2022/03/24 12:06:15;;;;;;;6.60;3.28;;;;;;;;;;5051768;28;20048;-61
2022/03/24 12:08:51;;;;;;;6.18;2.92;;;;;;;;;;5050241;28;20050;-62
2022/03/24 12:11:32;;;;;;;5.90;3.22;;;;;;;;;;5050717;28;20025;-62
2022/03/24 12:14:03;;;;;;;6.70;3.80;;;;;;;;;;5051842;28;20013;-61
2022/03/24 12:16:29;;;;;;;6.90;3.13;;;;;;;;;;5050625;28;20057;-62
2022/03/24 12:18:56;;;;;;;8.50;3.90;;;;;;;;;;5050448;28;20044;-63
2022/03/24 12:21:23;;;;;;;8.23;3.50;;;;;;;;;;5051336;28;20503;-61
2022/03/24 12:24:08;;;;;;;8.65;3.15;;;;;;;;;;5050863;28;20059;-62
2022/03/24 12:26:48;;;;;;;11.45;3.15;;;;;;;;;;5051056;28;20036;-61
2022/03/24 12:29:15;;;;;;;7.05;3.10;;;;;;;;;;5051268;28;20036;-62
2022/03/24 12:32:06;;;;;;;5.85;2.85;;;;;;;;;;5050787;28;20047;-61
2022/03/24 12:34:43;;;;;;;7.38;2.97;;;;;;;;;;5047847;28;20037;-62
2022/03/24 12:37:29;;;;;;;7.57;3.60;;;;;;;;;;5050329;28;20021;-63
2022/03/24 12:40:13;;;;;;;5.35;3.00;;;;;;;;;;5030971;28;20025;-61
2022/03/24 12:42:40;;;;;;;10.23;3.33;;;;;;;;;;5031693;28;20024;-63
2022/03/24 12:45:07;;;;;;;10.20;3.67;;;;;;;;;;5030901;28;20042;-62
2022/03/24 12:47:43;;;;;;;9.07;3.20;;;;;;;;;;5066426;28;20039;-64
2022/03/24 12:50:09;;;;;;;8.25;3.35;;;;;;;;;;5050965;28;20101;-62
2022/03/24 12:52:54;;;;;;;5.47;3.15;;;;;;;;;;5050994;28;20216;-60
2022/03/24 12:55:33;;;;;;;8.93;3.08;;;;;;;;;;5051297;28;20021;-63
2022/03/24 12:58:19;;;;;;;5.75;2.95;;;;;;;;;;5051228;28;20101;-64
2022/03/24 13:00:47;;;;;;;5.95;3.13;;;;;;;;;;5050885;28;20480;-61
2022/03/24 13:03:13;;;;;;;7.90;3.70;;;;;;;;;;5050559;28;20025;-63
2022/03/24 13:05:42;;;;;;;6.82;3.22;;;;;;;;;;5050824;28;20056;-62
2022/03/24 13:08:10;;;;;;;7.68;3.30;;;;;;;;;;5051053;28;20013;-64
2022/03/24 13:10:38;;;;;;;6.75;2.80;;;;;;;;;;5051251;28;20095;-60
2022/03/24 13:13:06;;;;;;;6.53;2.95;;;;;;;;;;5051372;28;20017;-62
2022/03/24 13:15:37;;;;;;;6.93;3.17;;;;;;;;;;5051312;28;20028;-62
2022/03/24 13:18:03;;;;;;;6.90;3.20;;;;;;;;;;5050967;28;20029;-61
2022/03/24 13:20:34;;;;;;;5.30;2.90;;;;;;;;;;5049490;28;20428;-63
2022/03/24 13:23:09;;;;;;;4.40;2.65;;;;;;;;;;5055183;28;20032;-66
2022/03/24 13:25:36;;;;;;;6.28;2.88;;;;;;;;;;5054845;28;20541;-62
2022/03/24 13:28:04;;;;;;;7.45;3.08;;;;;;;;;;5054664;28;20067;-62
2022/03/24 13:30:31;;;;;;;8.40;2.70;;;;;;;;;;5054379;28;20021;-63
2022/03/24 13:33:02;;;;;;;5.13;2.90;;;;;;;;;;5054999;28;20023;-63
2022/03/24 13:35:31;;;;;;;8.23;3.00;;;;;;;;;;5054863;28;20460;-62
2022/03/24 13:37:58;;;;;;;7.97;3.60;;;;;;;;;;5054914;28;20021;-62
2022/03/24 13:40:26;;;;;;;4.97;2.70;;;;;;;;;;5040278;28;20022;-62
2022/03/24 13:42:52;;;;;;;7.55;3.03;;;;;;;;;;5052727;28;20613;-63
2022/03/24 13:45:19;;;;;;;7.72;2.83;;;;;;;;;;5053694;28;20433;-63
2022/03/24 13:47:45;;;;;;;5.30;2.58;;;;;;;;;;5045458;28;20096;-63
2022/03/24 13:50:12;;;;;;;6.07;2.70;;;;;;;;;;5049189;28;20087;-62
2022/03/24 13:52:42;;;;;;;4.53;2.50;;;;;;;;;;5034133;28;20029;-62
2022/03/24 13:55:31;;;;;;;6.28;2.60;;;;;;;;;;5034090;28;20520;-62
2022/03/24 13:58:02;;;;;;;5.25;2.88;;;;;;;;;;5028573;28;20124;-63
2022/03/24 14:00:30;;;;;;;7.90;2.40;;;;;;;;;;5033871;28;20021;-61
2022/03/24 14:02:58;;;;;;;6.07;2.50;;;;;;;;;;5034118;28;20034;-62
2022/03/24 14:05:24;;;;;;;4.80;2.50;;;;;;;;;;5033641;28;20048;-61
2022/03/24 14:08:00;;;;;;;7.22;2.53;;;;;;;;;;5051085;28;20017;-62
2022/03/24 14:10:42;;;;;;;6.35;2.58;;;;;;;;;;5053750;28;20033;-62
2022/03/24 14:13:13;;;;;;;5.55;2.33;;;;;;;;;;5053875;28;20626;-62
2022/03/24 14:15:39;;;;;;;4.57;2.28;;;;;;;;;;5053427;28;20585;-61
2022/03/24 14:18:14;;;;;;;5.40;2.50;;;;;;;;;;5053429;28;20021;-62
2022/03/24 14:20:44;;;;;;;6.28;2.20;;;;;;;;;;5053296;28;20104;-62
2022/03/24 14:23:23;;;;;;;6.65;2.30;;;;;;;;;;5052973;28;20028;-61
2022/03/24 14:25:49;;;;;;;6.97;2.70;;;;;;;;;;5053323;28;20108;-63
2022/03/24 14:28:42;;;;;;;6.10;2.58;;;;;;;;;;5053714;28;20017;-62
2022/03/24 14:31:17;;;;;;;8.38;2.53;;;;;;;;;;5052691;28;20105;-63
2022/03/24 14:33:59;;;;;;;6.38;2.88;;;;;;;;;;5053280;28;20055;-63
2022/03/24 14:36:25;;;;;;;4.95;2.15;;;;;;;;;;5069338;28;20025;-63
2022/03/24 14:39:09;;;;;;;4.60;2.22;;;;;;;;;;5053586;28;20100;-62
2022/03/24 14:41:36;;;;;;;17.15;3.67;;;;;;;;;;5048418;28;20055;-63
2022/03/24 14:44:06;;;;;;;9.50;3.20;;;;;;;;;;5053232;28;20140;-63
2022/03/24 14:46:32;;;;;;;9.15;2.67;;;;;;;;;;5069186;28;20523;-63